Meishomaru — JD3044 — position and weather

sailwx.info

Track history (hours):
 
Tides and Currents Weather Stations Pressure Air Temp Water Temp Dewpoint Dewpoint Depression Visibility Wind Speed Wind Dir Waves Ship Positions

Meishomaru

Last reported at 2014-Oct-28 05:29 UTC. Time now 2014-Oct-31 20:56 UTC.
Position N 35°15' E 139°46'.

Length 68 m; draft 4 m.

Type: Tanker. MMSI: 431001216.

Date/timePositionNaut miles runAvg speedWind from/ knotsBaromVisibWave heightAir tempDewpointWater temp
2014-Oct-28 05:29N 35°15' E 139°46'1010.9
2014-Oct-28 04:33N 35°25' E 139°44'10 1.7
2014-Oct-27 22:34N 35°29' E 139°56'0 0.2
2014-Oct-27 21:33N 35°29' E 139°56'0 0.0
2014-Oct-27 20:33N 35°29' E 139°56'0 0.0
2014-Oct-27 19:30N 35°29' E 139°56'0 0.0
2014-Oct-27 18:33N 35°29' E 139°56'0 0.0
2014-Oct-27 17:33N 35°29' E 139°56'0 0.0
2014-Oct-27 16:30N 35°29' E 139°56'0 0.0
2014-Oct-27 15:30N 35°29' E 139°56'2 1.9
2014-Oct-27 14:33N 35°29' E 139°53'1010.0
2014-Oct-27 13:33N 35°22' E 139°45'9 9.4
2014-Oct-27 12:33N 35°12' E 139°47'245 9.8
2014-Oct-26 11:33N 34°09' E 134°59'1511.4
2014-Oct-26 10:15N 34°24' E 134°60'811.8
2014-Oct-26 09:33N 34°32' E 135°02'9 9.0
2014-Oct-26 08:33N 34°37' E 134°53'4 0.1
2014-Oct-24 10:33N 34°38' E 134°58'1010.3
2014-Oct-24 09:33N 34°28' E 135°03'1312.6
2014-Oct-24 08:30N 34°15' E 134°60'242 9.7
2014-Oct-23 07:27N 35°12' E 139°45'1011.5
2014-Oct-23 06:33N 35°22' E 139°42'1211.7
2014-Oct-23 05:33N 35°30' E 139°53'3 0.4
2014-Oct-22 22:09N 35°29' E 139°56'0 0.0
2014-Oct-22 21:27N 35°29' E 139°56'0 0.0
2014-Oct-22 20:27N 35°29' E 139°56'0 0.0
2014-Oct-22 19:27N 35°29' E 139°56'0 0.0
2014-Oct-22 18:27N 35°29' E 139°56'0 0.0
2014-Oct-22 17:33N 35°29' E 139°56'7 7.3
2014-Oct-22 16:33N 35°25' E 139°48'1010.1
2014-Oct-22 15:34N 35°16' E 139°47'6 0.2
2014-Oct-21 06:33N 35°21' E 139°42'9 9.4
2014-Oct-21 05:33N 35°30' E 139°45'0 0.0
2014-Oct-21 00:22N 35°30' E 139°45'3 4.0
2014-Oct-20 23:31N 35°29' E 139°49'0 0.0
2014-Oct-20 22:31N 35°29' E 139°49'0 0.0
2014-Oct-20 21:28N 35°29' E 139°49'0 0.0
2014-Oct-20 20:31N 35°29' E 139°49'0 0.0
2014-Oct-20 19:31N 35°29' E 139°49'0 0.0
2014-Oct-20 18:28N 35°29' E 139°49'0 0.0
2014-Oct-20 17:31N 35°29' E 139°49'0 0.0
2014-Oct-20 16:31N 35°29' E 139°49'0 0.0
2014-Oct-20 15:31N 35°29' E 139°49'0 0.0
2014-Oct-20 14:31N 35°29' E 139°49'0 0.0
2014-Oct-20 13:16N 35°29' E 139°49'0 0.1
2014-Oct-20 12:28N 35°29' E 139°49'0 0.0
2014-Oct-20 11:28N 35°29' E 139°49'0 0.0
2014-Oct-20 10:19N 35°29' E 139°49'0 0.0
2014-Oct-20 09:31N 35°29' E 139°49'0 0.0
2014-Oct-20 08:31N 35°29' E 139°49'0 0.0
2014-Oct-20 07:28N 35°29' E 139°49'0 0.0
2014-Oct-20 06:31N 35°29' E 139°49'0 0.0
2014-Oct-20 05:28N 35°29' E 139°49'0 0.1
2014-Oct-20 04:31N 35°29' E 139°49'0 0.1
2014-Oct-20 03:31N 35°29' E 139°49'0 0.0
2014-Oct-20 02:25N 35°29' E 139°49'0 0.0
2014-Oct-20 01:31N 35°29' E 139°49'0 0.0
2014-Oct-20 00:31N 35°29' E 139°49'0 0.0
2014-Oct-19 23:31N 35°29' E 139°49'0 0.0
2014-Oct-19 22:28N 35°29' E 139°49'0 0.0
2014-Oct-19 21:22N 35°29' E 139°49'0 0.0
2014-Oct-19 20:31N 35°29' E 139°49'0 0.0
2014-Oct-19 19:31N 35°29' E 139°49'2 1.9
2014-Oct-19 18:34N 35°27' E 139°48'1111.1
2014-Oct-19 17:33N 35°16' E 139°46'  
Track history (hours):
 
Tides and Currents Weather Stations Pressure Air Temp Water Temp Dewpoint Dewpoint Depression Visibility Wind Speed Wind Dir Waves Ship Positions

Meishomaru

Last reported at 2014-Oct-28 05:29 UTC. Time now 2014-Oct-31 20:56 UTC.
Position N 35°15' E 139°46'.

Length 68 m; draft 4 m.

Type: Tanker. MMSI: 431001216.

Date/timePositionNaut miles runAvg speedWind from/ knotsBaromVisibWave heightAir tempDewpointWater temp
2014-Oct-28 05:29N 35°15' E 139°46'1010.9
2014-Oct-28 04:33N 35°25' E 139°44'10 1.7
2014-Oct-27 22:34N 35°29' E 139°56'0 0.2
2014-Oct-27 21:33N 35°29' E 139°56'0 0.0
2014-Oct-27 20:33N 35°29' E 139°56'0 0.0
2014-Oct-27 19:30N 35°29' E 139°56'0 0.0
2014-Oct-27 18:33N 35°29' E 139°56'0 0.0
2014-Oct-27 17:33N 35°29' E 139°56'0 0.0
2014-Oct-27 16:30N 35°29' E 139°56'0 0.0
2014-Oct-27 15:30N 35°29' E 139°56'2 1.9
2014-Oct-27 14:33N 35°29' E 139°53'1010.0
2014-Oct-27 13:33N 35°22' E 139°45'9 9.4
2014-Oct-27 12:33N 35°12' E 139°47'245 9.8
2014-Oct-26 11:33N 34°09' E 134°59'1511.4
2014-Oct-26 10:15N 34°24' E 134°60'811.8
2014-Oct-26 09:33N 34°32' E 135°02'9 9.0
2014-Oct-26 08:33N 34°37' E 134°53'4 0.1
2014-Oct-24 10:33N 34°38' E 134°58'1010.3
2014-Oct-24 09:33N 34°28' E 135°03'1312.6
2014-Oct-24 08:30N 34°15' E 134°60'242 9.7
2014-Oct-23 07:27N 35°12' E 139°45'1011.5
2014-Oct-23 06:33N 35°22' E 139°42'1211.7
2014-Oct-23 05:33N 35°30' E 139°53'3 0.4
2014-Oct-22 22:09N 35°29' E 139°56'0 0.0
2014-Oct-22 21:27N 35°29' E 139°56'0 0.0
2014-Oct-22 20:27N 35°29' E 139°56'0 0.0
2014-Oct-22 19:27N 35°29' E 139°56'0 0.0
2014-Oct-22 18:27N 35°29' E 139°56'0 0.0
2014-Oct-22 17:33N 35°29' E 139°56'7 7.3
2014-Oct-22 16:33N 35°25' E 139°48'1010.1
2014-Oct-22 15:34N 35°16' E 139°47'6 0.2
2014-Oct-21 06:33N 35°21' E 139°42'9 9.4
2014-Oct-21 05:33N 35°30' E 139°45'0 0.0
2014-Oct-21 00:22N 35°30' E 139°45'3 4.0
2014-Oct-20 23:31N 35°29' E 139°49'0 0.0
2014-Oct-20 22:31N 35°29' E 139°49'0 0.0
2014-Oct-20 21:28N 35°29' E 139°49'0 0.0
2014-Oct-20 20:31N 35°29' E 139°49'0 0.0
2014-Oct-20 19:31N 35°29' E 139°49'0 0.0
2014-Oct-20 18:28N 35°29' E 139°49'0 0.0
2014-Oct-20 17:31N 35°29' E 139°49'0 0.0
2014-Oct-20 16:31N 35°29' E 139°49'0 0.0
2014-Oct-20 15:31N 35°29' E 139°49'0 0.0
2014-Oct-20 14:31N 35°29' E 139°49'0 0.0
2014-Oct-20 13:16N 35°29' E 139°49'0 0.1
2014-Oct-20 12:28N 35°29' E 139°49'0 0.0
2014-Oct-20 11:28N 35°29' E 139°49'0 0.0
2014-Oct-20 10:19N 35°29' E 139°49'0 0.0
2014-Oct-20 09:31N 35°29' E 139°49'0 0.0
2014-Oct-20 08:31N 35°29' E 139°49'0 0.0
2014-Oct-20 07:28N 35°29' E 139°49'0 0.0
2014-Oct-20 06:31N 35°29' E 139°49'0 0.0
2014-Oct-20 05:28N 35°29' E 139°49'0 0.1
2014-Oct-20 04:31N 35°29' E 139°49'0 0.1
2014-Oct-20 03:31N 35°29' E 139°49'0 0.0
2014-Oct-20 02:25N 35°29' E 139°49'0 0.0
2014-Oct-20 01:31N 35°29' E 139°49'0 0.0
2014-Oct-20 00:31N 35°29' E 139°49'0 0.0
2014-Oct-19 23:31N 35°29' E 139°49'0 0.0
2014-Oct-19 22:28N 35°29' E 139°49'0 0.0
2014-Oct-19 21:22N 35°29' E 139°49'0 0.0
2014-Oct-19 20:31N 35°29' E 139°49'0 0.0
2014-Oct-19 19:31N 35°29' E 139°49'2 1.9
2014-Oct-19 18:34N 35°27' E 139°48'1111.1
2014-Oct-19 17:33N 35°16' E 139°46'  

Dump ship's entire track history